Latest Weather Observations for Gannett Cay

IDQ60801

Issued at 2:02 pm EST Thursday 3 September 2015 (issued every 30 minutes, with the page automatically refreshed every 10 minutes)

About weather observations | Map of weather stations | Latest weather observations for QLD | Other Formats
Station Details ID: 200831 Name: GANNET CAY Lat: -21.98 Lon: 152.47 Height: 2.3 m
Data from the previous 72 hours. | See also: Recent months for locations in Queensland
Date/Time
EST
Temp
°C
App
Temp
°C
Dew
Point
Rel
Hum
%
Delta-T
°C
Wind Press
QNH
hPa
Press
MSL
hPa
Rain
since 9 am
mm
Dir
 
Spd
km/h
Gust
km/h
Spd
kts
Gust
kts
03/02:00pm 23.2 - - - - NNW 39 44 21 24 1014.2 - -
03/01:30pm 23.2 - - - - NNW 35 41 19 22 1014.7 1014.8 -
03/01:00pm 23.1 - - - - NNW 35 41 19 22 1015.1 - -
03/12:30pm 23.0 - - - - NNW 35 39 19 21 1015.5 1015.6 -
03/12:00pm 23.0 - - - - NNW 35 41 19 22 1016.0 - -
03/11:30am 23.1 - - - - NNW 33 39 18 21 1016.9 1017.0 -
03/11:00am 23.1 - - - - NNW 33 39 18 21 1017.6 - -
03/10:30am 22.9 - - - - NNW 32 35 17 19 1018.2 1018.3 -
03/10:00am 22.9 - - - - NNW 28 32 15 17 1018.6 - -
03/09:30am 22.8 - - - - NNW 30 33 16 18 1018.6 1018.7 -
03/09:00am 22.8 - - - - N 33 37 18 20 1018.2 - -
03/08:30am 22.8 - - - - N 32 37 17 20 1017.9 1018.0 -
03/08:00am 22.7 - - - - N 30 35 16 19 1017.4 - -
03/07:30am 22.6 - - - - N 32 35 17 19 1016.8 1016.9 -
03/07:00am 22.4 - - - - N 35 39 19 21 1016.2 - -
03/06:30am 22.3 - - - - N 39 43 21 23 1015.5 1015.6 -
03/06:00am 22.3 - - - - N 39 44 21 24 1015.1 - -
03/05:30am 22.2 - - - - N 43 50 23 27 1014.1 1014.2 -
03/05:00am 22.1 - - - - N 41 46 22 25 1014.1 - -
03/04:30am 22.3 - - - - N 35 39 19 21 1014.6 1014.7 -
03/04:00am 22.1 - - - - N 32 35 17 19 1014.8 - -
03/03:30am 22.1 - - - - N 32 35 17 19 1014.8 1014.9 -
03/03:00am 22.1 - - - - N 30 35 16 19 1015.2 - -
03/02:30am 22.2 - - - - N 30 32 16 17 1015.5 1015.6 -
03/02:00am 22.1 - - - - N 28 32 15 17 1015.8 - -
03/01:30am 22.1 - - - - N 30 33 16 18 1016.0 1016.1 -
03/01:00am 22.2 - - - - N 30 33 16 18 1016.2 - -
03/12:30am 22.2 - - - - N 32 35 17 19 1016.4 1016.5 -
03/12:00am 22.1 - - - - N 32 35 17 19 1016.5 - -
 
Date/Time
EST
Temp
°C
App
Temp
°C
Dew
Point
Rel
Hum
%
Delta-T
°C
Wind Press
QNH
hPa
Press
MSL
hPa
Rain
since 9 am
mm
Dir
 
Spd
km/h
Gust
km/h
Spd
kts
Gust
kts
02/11:30pm 22.2 - - - - N 28 32 15 17 1016.9 1017.0 -
02/11:00pm 22.2 - - - - N 28 32 15 17 1017.1 - -
02/10:30pm 22.1 - - - - N 26 30 14 16 1017.3 1017.4 -
02/10:00pm 22.2 - - - - N 28 32 15 17 1017.2 - -
02/09:41pm 22.1 - - - - NNE 28 33 15 18 1017.0 - -
02/09:30pm 22.1 - - - - NNE 2 6 1 3 1016.8 1016.9 -
02/09:00pm 22.1 - - - - NNE 2 6 1 3 1016.9 - -
02/08:30pm 22.2 - - - - NNE 2 6 1 3 1017.1 1017.2 -
02/08:00pm 22.2 - - - - CALM 0 6 0 3 1017.1 - -
02/07:30pm 22.3 - - - - CALM 0 6 0 3 1017.0 1017.1 -
02/07:00pm 22.2 - - - - CALM 0 4 0 2 1016.9 - -
02/06:30pm 22.2 - - - - NNE 2 6 1 3 1016.8 1016.9 -
02/06:00pm 22.3 - - - - NNE 17 20 9 11 1016.6 - -
02/05:30pm 22.4 - - - - NNE 15 20 8 11 1016.6 1016.7 -
02/05:00pm 22.5 - - - - N 15 19 8 10 1016.5 - -
02/04:30pm 22.6 - - - - N 15 17 8 9 1016.5 1016.6 -
02/04:00pm 22.6 - - - - N 15 19 8 10 1016.5 - -
02/03:30pm 22.7 - - - - N 15 17 8 9 1016.7 1016.8 -
02/03:00pm 22.6 - - - - N 17 20 9 11 1016.6 - -
02/02:30pm 22.6 - - - - N 17 19 9 10 1017.0 1017.1 -
02/02:00pm 22.5 - - - - N 17 19 9 10 1017.5 - -
02/01:30pm 22.5 - - - - N 17 20 9 11 1017.8 1017.9 -
02/01:00pm 22.4 - - - - N 17 20 9 11 1018.3 - -
02/12:30pm 22.3 - - - - N 17 20 9 11 1018.6 1018.7 -
02/12:00pm 22.3 - - - - N 17 19 9 10 1018.9 - -
02/11:30am 22.4 - - - - NNE 17 20 9 11 1019.3 1019.4 -
02/11:00am 22.4 - - - - NNE 15 17 8 9 1019.6 - -
02/10:30am 22.4 - - - - NNE 13 17 7 9 1020.0 1020.1 -
02/10:00am 22.6 - - - - NNE 13 15 7 8 1020.3 - -
02/09:30am 22.5 - - - - NNE 11 15 6 8 1020.3 1020.4 -
02/09:00am 22.6 - - - - NNE 11 15 6 8 1020.1 - -
02/08:30am 22.5 - - - - NNE 11 13 6 7 1020.0 1020.1 -
02/08:00am 22.3 - - - - NNE 11 13 6 7 1019.8 - -
02/07:30am 22.2 - - - - NNE 11 13 6 7 1019.4 1019.5 -
02/07:00am 22.2 - - - - NNE 11 13 6 7 1019.1 - -
02/06:30am 21.9 - - - - NNE 11 15 6 8 1018.6 1018.7 -
02/06:00am 21.5 - - - - NNE 7 11 4 6 1018.3 - -
02/05:30am 21.4 - - - - N 7 9 4 5 1018.0 1018.1 -
02/05:00am 21.2 - - - - NNE 2 7 1 4 1017.6 - -
02/04:30am 21.3 - - - - N 6 7 3 4 1017.4 1017.5 -
02/04:00am 21.5 - - - - N 6 7 3 4 1017.3 - -
02/03:30am 21.4 - - - - N 6 7 3 4 1017.3 1017.4 -
02/03:00am 21.4 - - - - NE 2 6 1 3 1017.2 - -
02/02:30am 21.5 - - - - N 9 11 5 6 1017.3 1017.4 -
02/02:00am 21.6 - - - - N 15 19 8 10 1017.3 - -
02/01:30am 21.5 - - - - N 17 20 9 11 1017.1 1017.2 -
02/01:00am 21.2 - - - - N 19 20 10 11 1017.2 - -
02/12:30am 21.1 - - - - N 11 15 6 8 1017.2 1017.3 -
02/12:00am 20.9 - - - - NNE 7 9 4 5 1017.1 - -
 
Date/Time
EST
Temp
°C
App
Temp
°C
Dew
Point
Rel
Hum
%
Delta-T
°C
Wind Press
QNH
hPa
Press
MSL
hPa
Rain
since 9 am
mm
Dir
 
Spd
km/h
Gust
km/h
Spd
kts
Gust
kts
01/11:30pm 20.9 - - - - ENE 7 9 4 5 1017.1 1017.2 -
01/11:00pm 20.9 - - - - NE 7 9 4 5 1017.2 - -
01/10:30pm 20.9 - - - - NE 7 11 4 6 1017.2 1017.3 -
01/10:00pm 20.8 - - - - ENE 9 9 5 5 1017.2 - -
01/09:30pm 20.9 - - - - ENE 9 11 5 6 1017.3 1017.4 -
01/09:00pm 20.8 - - - - E 9 9 5 5 1017.2 - -
01/08:30pm 20.7 - - - - E 7 11 4 6 1017.1 1017.2 -
01/08:00pm 20.7 - - - - E 7 11 4 6 1016.8 - -
01/07:30pm 20.7 - - - - E 9 13 5 7 1016.6 1016.7 -
01/07:00pm 20.5 - - - - ESE 7 9 4 5 1016.2 - -
01/06:30pm 20.6 - - - - ESE 9 11 5 6 1015.8 1015.9 -
01/06:00pm 20.7 - - - - SE 9 11 5 6 1015.7 - -
01/05:30pm 21.1 - - - - SE 11 15 6 8 1015.5 1015.6 -
01/05:00pm 21.9 - - - - SSE 11 13 6 7 1015.4 - -
01/04:30pm 22.0 - - - - SSE 11 13 6 7 1015.4 1015.5 -
01/04:00pm 21.9 - - - - SSE 11 13 6 7 1015.3 - -
01/03:30pm 21.9 - - - - SSE 13 15 7 8 1015.2 1015.3 -
01/03:00pm 21.7 - - - - S 13 15 7 8 1015.3 - -
01/02:30pm 22.0 - - - - SSE 13 17 7 9 1015.5 1015.6 -
01/02:00pm 21.4 - - - - S 15 19 8 10 1015.8 - -
01/01:30pm 21.5 - - - - S 13 17 7 9 1016.3 1016.4 -
01/01:00pm 21.4 - - - - S 13 17 7 9 1016.8 - -
01/12:30pm 21.9 - - - - SSE 15 19 8 10 1017.1 1017.2 -
01/12:00pm 21.7 - - - - S 11 13 6 7 1017.4 - -
01/11:30am 21.6 - - - - S 11 13 6 7 1017.9 1018.0 -
01/11:00am 21.7 - - - - S 11 15 6 8 1018.3 - -
01/10:30am 21.8 - - - - S 11 15 6 8 1018.6 1018.7 -
01/10:00am 22.3 - - - - SSE 11 13 6 7 1018.8 - -
01/09:30am 22.3 - - - - SE 11 15 6 8 1018.9 1019.0 -
01/09:00am 22.2 - - - - SE 13 17 7 9 1018.7 - -
01/08:30am 21.9 - - - - SSE 15 19 8 10 1018.4 1018.5 -
01/08:00am 21.8 - - - - SSE 17 20 9 11 1017.9 - -
01/07:30am 21.7 - - - - SW 15 20 8 11 1017.4 1017.5 -
01/07:00am 21.6 - - - - SW 17 22 9 12 1017.0 - -
01/06:30am 21.3 - - - - SW 17 20 9 11 1016.7 1016.8 -
01/06:00am 21.3 - - - - SSW 17 20 9 11 1016.3 - -
01/05:30am 21.3 - - - - SSW 19 22 10 12 1016.0 1016.1 -
01/05:00am 21.4 - - - - SSW 17 20 9 11 1015.8 - -
01/04:30am 21.3 - - - - SSW 17 22 9 12 1015.6 1015.7 -
01/04:00am 21.3 - - - - S 17 20 9 11 1015.5 - -
01/03:30am 21.2 - - - - SSW 19 22 10 12 1015.5 1015.6 -
01/03:00am 21.3 - - - - S 17 20 9 11 1015.5 - -
01/02:30am 21.3 - - - - S 13 17 7 9 1015.5 1015.6 -
01/02:00am 21.3 - - - - S 17 20 9 11 1015.5 - -
01/01:30am 21.3 - - - - S 15 19 8 10 1015.7 1015.8 -
01/01:00am 21.4 - - - - S 17 22 9 12 1015.8 - -
01/12:30am 21.3 - - - - S 15 17 8 9 1016.1 1016.2 -
01/12:00am 21.5 - - - - SSW 15 17 8 9 1016.2 - -
 
Date/Time
EST
Temp
°C
App
Temp
°C
Dew
Point
Rel
Hum
%
Delta-T
°C
Wind Press
QNH
hPa
Press
MSL
hPa
Rain
since 9 am
mm
Dir
 
Spd
km/h
Gust
km/h
Spd
kts
Gust
kts
31/11:30pm 21.3 - - - - WSW 7 9 4 5 1016.2 1016.3 -
31/11:00pm 21.3 - - - - WSW 9 13 5 7 1016.4 - -
31/10:30pm 21.2 - - - - WSW 11 13 6 7 1016.5 1016.6 -
31/10:00pm 21.3 - - - - WSW 9 15 5 8 1016.6 - -
31/09:30pm 21.3 - - - - WSW 7 9 4 5 1016.6 1016.7 -
31/09:00pm 20.9 - - - - WSW 7 9 4 5 1016.5 - -
31/08:30pm 20.3 - - - - SSW 7 9 4 5 1016.3 1016.4 -
31/08:00pm 20.2 - - - - S 7 11 4 6 1016.1 - -
31/07:30pm 20.0 - - - - S 9 11 5 6 1016.0 1016.1 -
31/07:00pm 20.0 - - - - S 9 11 5 6 1015.6 - -
31/06:30pm 20.1 - - - - S 11 15 6 8 1015.4 1015.5 -
31/06:00pm 20.0 - - - - S 13 17 7 9 1015.2 - -
31/05:30pm 20.0 - - - - S 15 19 8 10 1014.9 1015.0 -
31/05:00pm 20.1 - - - - S 17 20 9 11 1014.7 - -
31/04:30pm 20.1 - - - - SSW 17 20 9 11 1014.6 1014.7 -
31/04:00pm 20.3 - - - - S 19 22 10 12 1014.4 - -
31/03:30pm 20.2 - - - - S 19 22 10 12 1014.2 1014.3 -
31/03:00pm 20.3 - - - - S 20 24 11 13 1014.3 - -
31/02:30pm 20.4 - - - - S 17 22 9 12 1014.8 1014.9 -

Other Formats:

Comma delimited format used in spreadsheet applications
http://www.bom.gov.au/fwo/IDQ60801/IDQ60801.94379.axf

JavaScript Object Notation format (JSON) in row-major order
http://www.bom.gov.au/fwo/IDQ60801/IDQ60801.94379.json